sensor_id;sensor_type;location;lat;lon;timestamp;temperature;humidity
78779;DHT22;68121;52.404;5.318;2023-07-24T00:00:38;19.00;69.80
78779;DHT22;68121;52.404;5.318;2023-07-24T00:03:06;19.00;69.80
78779;DHT22;68121;52.404;5.318;2023-07-24T00:05:32;19.00;69.80
78779;DHT22;68121;52.404;5.318;2023-07-24T00:07:58;19.00;69.80
78779;DHT22;68121;52.404;5.318;2023-07-24T00:10:24;19.00;69.90
78779;DHT22;68121;52.404;5.318;2023-07-24T00:12:50;19.00;69.80
78779;DHT22;68121;52.404;5.318;2023-07-24T00:15:16;19.00;69.90
78779;DHT22;68121;52.404;5.318;2023-07-24T00:17:43;19.00;69.90
78779;DHT22;68121;52.404;5.318;2023-07-24T00:20:09;19.00;69.90
78779;DHT22;68121;52.404;5.318;2023-07-24T00:22:35;19.00;69.90
78779;DHT22;68121;52.404;5.318;2023-07-24T00:25:01;19.00;70.00
78779;DHT22;68121;52.404;5.318;2023-07-24T00:27:27;19.00;70.10
78779;DHT22;68121;52.404;5.318;2023-07-24T00:29:54;19.00;70.20
78779;DHT22;68121;52.404;5.318;2023-07-24T00:32:20;19.00;70.20
78779;DHT22;68121;52.404;5.318;2023-07-24T00:34:46;19.00;70.30
78779;DHT22;68121;52.404;5.318;2023-07-24T00:37:12;19.00;70.30
78779;DHT22;68121;52.404;5.318;2023-07-24T00:39:40;18.90;70.40
78779;DHT22;68121;52.404;5.318;2023-07-24T00:42:06;19.00;70.50
78779;DHT22;68121;52.404;5.318;2023-07-24T00:44:32;19.00;70.40
78779;DHT22;68121;52.404;5.318;2023-07-24T00:46:58;19.00;70.50
78779;DHT22;68121;52.404;5.318;2023-07-24T00:49:24;18.90;70.50
78779;DHT22;68121;52.404;5.318;2023-07-24T00:51:51;18.90;70.60
78779;DHT22;68121;52.404;5.318;2023-07-24T00:54:18;18.90;70.60
78779;DHT22;68121;52.404;5.318;2023-07-24T00:56:45;18.90;70.60
78779;DHT22;68121;52.404;5.318;2023-07-24T00:59:11;18.90;70.70
78779;DHT22;68121;52.404;5.318;2023-07-24T01:01:38;18.80;70.60
78779;DHT22;68121;52.404;5.318;2023-07-24T01:04:06;18.80;70.70
78779;DHT22;68121;52.404;5.318;2023-07-24T01:06:32;18.80;70.70
78779;DHT22;68121;52.404;5.318;2023-07-24T01:08:59;18.80;70.70
78779;DHT22;68121;52.404;5.318;2023-07-24T01:11:28;18.70;70.70
78779;DHT22;68121;52.404;5.318;2023-07-24T01:14:12;18.70;70.70
78779;DHT22;68121;52.404;5.318;2023-07-24T01:16:42;18.70;70.70
78779;DHT22;68121;52.404;5.318;2023-07-24T01:19:16;18.70;70.70
78779;DHT22;68121;52.404;5.318;2023-07-24T01:24:52;18.60;70.70
78779;DHT22;68121;52.404;5.318;2023-07-24T01:27:24;18.60;70.70
78779;DHT22;68121;52.404;5.318;2023-07-24T01:29:50;18.60;70.60
78779;DHT22;68121;52.404;5.318;2023-07-24T01:32:17;18.60;70.60
78779;DHT22;68121;52.404;5.318;2023-07-24T01:34:43;18.60;70.60
78779;DHT22;68121;52.404;5.318;2023-07-24T01:37:10;18.60;70.60
78779;DHT22;68121;52.404;5.318;2023-07-24T01:39:40;18.60;70.50
78779;DHT22;68121;52.404;5.318;2023-07-24T01:42:07;18.60;70.70
78779;DHT22;68121;52.404;5.318;2023-07-24T01:44:33;18.60;70.50
78779;DHT22;68121;52.404;5.318;2023-07-24T01:46:59;18.60;70.50
78779;DHT22;68121;52.404;5.318;2023-07-24T01:49:25;18.50;70.50
78779;DHT22;68121;52.404;5.318;2023-07-24T01:51:51;18.50;70.50
78779;DHT22;68121;52.404;5.318;2023-07-24T01:54:17;18.50;70.50
78779;DHT22;68121;52.404;5.318;2023-07-24T01:56:43;18.50;70.50
78779;DHT22;68121;52.404;5.318;2023-07-24T01:59:09;18.60;70.50
78779;DHT22;68121;52.404;5.318;2023-07-24T02:01:35;18.50;70.40
78779;DHT22;68121;52.404;5.318;2023-07-24T02:04:02;18.50;70.40
78779;DHT22;68121;52.404;5.318;2023-07-24T02:06:28;18.60;70.40
78779;DHT22;68121;52.404;5.318;2023-07-24T02:08:54;18.50;70.40
78779;DHT22;68121;52.404;5.318;2023-07-24T02:11:21;18.50;70.40
78779;DHT22;68121;52.404;5.318;2023-07-24T02:13:47;18.50;70.40
78779;DHT22;68121;52.404;5.318;2023-07-24T02:16:14;18.50;70.40
78779;DHT22;68121;52.404;5.318;2023-07-24T02:18:42;18.50;70.50
78779;DHT22;68121;52.404;5.318;2023-07-24T02:21:09;18.50;70.50
78779;DHT22;68121;52.404;5.318;2023-07-24T02:23:35;18.50;70.50
78779;DHT22;68121;52.404;5.318;2023-07-24T02:26:01;18.50;70.60
78779;DHT22;68121;52.404;5.318;2023-07-24T02:28:29;18.50;70.70
78779;DHT22;68121;52.404;5.318;2023-07-24T02:30:55;18.50;70.70
78779;DHT22;68121;52.404;5.318;2023-07-24T02:33:22;18.40;70.90
78779;DHT22;68121;52.404;5.318;2023-07-24T02:35:52;18.50;70.90
78779;DHT22;68121;52.404;5.318;2023-07-24T02:38:18;18.50;71.00
78779;DHT22;68121;52.404;5.318;2023-07-24T02:40:47;18.50;71.10
78779;DHT22;68121;52.404;5.318;2023-07-24T02:43:13;18.50;71.10
78779;DHT22;68121;52.404;5.318;2023-07-24T02:45:39;18.40;71.10
78779;DHT22;68121;52.404;5.318;2023-07-24T02:48:05;18.40;71.20
78779;DHT22;68121;52.404;5.318;2023-07-24T02:50:32;18.40;71.20
78779;DHT22;68121;52.404;5.318;2023-07-24T02:52:59;18.40;71.20
78779;DHT22;68121;52.404;5.318;2023-07-24T02:55:26;18.40;71.30
78779;DHT22;68121;52.404;5.318;2023-07-24T02:57:53;18.40;71.20
78779;DHT22;68121;52.404;5.318;2023-07-24T03:00:19;18.40;71.20
78779;DHT22;68121;52.404;5.318;2023-07-24T03:02:45;18.40;71.20
78779;DHT22;68121;52.404;5.318;2023-07-24T03:05:11;18.40;71.20
78779;DHT22;68121;52.404;5.318;2023-07-24T03:07:37;18.40;71.20
78779;DHT22;68121;52.404;5.318;2023-07-24T03:10:03;18.40;71.20
78779;DHT22;68121;52.404;5.318;2023-07-24T03:12:30;18.40;71.20
78779;DHT22;68121;52.404;5.318;2023-07-24T03:14:56;18.40;71.20
78779;DHT22;68121;52.404;5.318;2023-07-24T03:17:22;18.40;71.10
78779;DHT22;68121;52.404;5.318;2023-07-24T03:19:49;18.40;71.10
78779;DHT22;68121;52.404;5.318;2023-07-24T03:22:15;18.40;71.20
78779;DHT22;68121;52.404;5.318;2023-07-24T03:24:41;18.40;71.20
78779;DHT22;68121;52.404;5.318;2023-07-24T03:27:07;18.40;71.20
78779;DHT22;68121;52.404;5.318;2023-07-24T03:29:33;18.40;71.20
78779;DHT22;68121;52.404;5.318;2023-07-24T03:31:59;18.30;71.30
78779;DHT22;68121;52.404;5.318;2023-07-24T03:34:25;18.30;71.40
78779;DHT22;68121;52.404;5.318;2023-07-24T03:36:51;18.30;71.40
78779;DHT22;68121;52.404;5.318;2023-07-24T03:39:17;18.30;71.50
78779;DHT22;68121;52.404;5.318;2023-07-24T03:41:44;18.30;71.50
78779;DHT22;68121;52.404;5.318;2023-07-24T03:44:10;18.30;71.50
78779;DHT22;68121;52.404;5.318;2023-07-24T03:46:36;18.30;71.60
78779;DHT22;68121;52.404;5.318;2023-07-24T03:49:02;18.30;71.70
78779;DHT22;68121;52.404;5.318;2023-07-24T03:51:28;18.20;71.70
78779;DHT22;68121;52.404;5.318;2023-07-24T03:53:54;18.20;71.80
78779;DHT22;68121;52.404;5.318;2023-07-24T03:56:20;18.20;71.70
78779;DHT22;68121;52.404;5.318;2023-07-24T03:58:47;18.30;71.70
78779;DHT22;68121;52.404;5.318;2023-07-24T04:01:13;18.20;71.80
78779;DHT22;68121;52.404;5.318;2023-07-24T04:03:39;18.20;71.80
78779;DHT22;68121;52.404;5.318;2023-07-24T04:06:05;18.20;71.80
78779;DHT22;68121;52.404;5.318;2023-07-24T04:08:31;18.20;71.90
78779;DHT22;68121;52.404;5.318;2023-07-24T04:10:57;18.20;71.90
78779;DHT22;68121;52.404;5.318;2023-07-24T04:13:23;18.20;71.90
78779;DHT22;68121;52.404;5.318;2023-07-24T04:15:49;18.20;71.90
78779;DHT22;68121;52.404;5.318;2023-07-24T04:18:16;18.20;71.90
78779;DHT22;68121;52.404;5.318;2023-07-24T04:20:42;18.20;71.90
78779;DHT22;68121;52.404;5.318;2023-07-24T04:23:08;18.20;71.90
78779;DHT22;68121;52.404;5.318;2023-07-24T04:25:34;18.20;71.80
78779;DHT22;68121;52.404;5.318;2023-07-24T04:28:00;18.20;71.80
78779;DHT22;68121;52.404;5.318;2023-07-24T04:30:26;18.20;71.80
78779;DHT22;68121;52.404;5.318;2023-07-24T04:32:52;18.30;71.70
78779;DHT22;68121;52.404;5.318;2023-07-24T04:35:18;18.30;71.60
78779;DHT22;68121;52.404;5.318;2023-07-24T04:37:44;18.30;71.60
78779;DHT22;68121;52.404;5.318;2023-07-24T04:40:11;18.30;71.60
78779;DHT22;68121;52.404;5.318;2023-07-24T04:42:37;18.30;71.60
78779;DHT22;68121;52.404;5.318;2023-07-24T04:45:03;18.30;71.60
78779;DHT22;68121;52.404;5.318;2023-07-24T04:47:29;18.30;71.50
78779;DHT22;68121;52.404;5.318;2023-07-24T04:49:55;18.30;71.50
78779;DHT22;68121;52.404;5.318;2023-07-24T04:52:22;18.30;71.50
78779;DHT22;68121;52.404;5.318;2023-07-24T04:54:48;18.30;71.50
78779;DHT22;68121;52.404;5.318;2023-07-24T04:57:14;18.30;71.50
78779;DHT22;68121;52.404;5.318;2023-07-24T04:59:41;18.30;71.50
78779;DHT22;68121;52.404;5.318;2023-07-24T05:02:07;18.30;71.50
78779;DHT22;68121;52.404;5.318;2023-07-24T05:04:33;18.20;71.40
78779;DHT22;68121;52.404;5.318;2023-07-24T05:06:59;18.20;71.50
78779;DHT22;68121;52.404;5.318;2023-07-24T05:09:25;18.20;71.40
78779;DHT22;68121;52.404;5.318;2023-07-24T05:11:51;18.20;71.40
78779;DHT22;68121;52.404;5.318;2023-07-24T05:14:17;18.20;71.50
78779;DHT22;68121;52.404;5.318;2023-07-24T05:16:43;18.20;71.40
78779;DHT22;68121;52.404;5.318;2023-07-24T05:19:09;18.20;71.40
78779;DHT22;68121;52.404;5.318;2023-07-24T05:21:35;18.10;71.40
78779;DHT22;68121;52.404;5.318;2023-07-24T05:24:01;18.20;71.50
78779;DHT22;68121;52.404;5.318;2023-07-24T05:26:28;18.20;71.50
78779;DHT22;68121;52.404;5.318;2023-07-24T05:28:54;18.20;71.50
78779;DHT22;68121;52.404;5.318;2023-07-24T05:31:20;18.30;71.50
78779;DHT22;68121;52.404;5.318;2023-07-24T05:33:46;18.30;71.40
78779;DHT22;68121;52.404;5.318;2023-07-24T05:36:12;18.30;71.40
78779;DHT22;68121;52.404;5.318;2023-07-24T05:38:39;18.40;71.30
78779;DHT22;68121;52.404;5.318;2023-07-24T05:41:05;18.40;71.30
78779;DHT22;68121;52.404;5.318;2023-07-24T05:43:31;18.40;71.20
78779;DHT22;68121;52.404;5.318;2023-07-24T05:45:58;18.40;71.20
78779;DHT22;68121;52.404;5.318;2023-07-24T05:48:25;18.40;71.20
78779;DHT22;68121;52.404;5.318;2023-07-24T05:50:51;18.40;71.20
78779;DHT22;68121;52.404;5.318;2023-07-24T05:53:17;18.40;71.10
78779;DHT22;68121;52.404;5.318;2023-07-24T05:55:43;18.50;71.10
78779;DHT22;68121;52.404;5.318;2023-07-24T05:58:10;18.50;71.10
78779;DHT22;68121;52.404;5.318;2023-07-24T06:00:36;18.50;71.10
78779;DHT22;68121;52.404;5.318;2023-07-24T06:03:04;18.50;71.10
78779;DHT22;68121;52.404;5.318;2023-07-24T06:05:30;18.50;71.10
78779;DHT22;68121;52.404;5.318;2023-07-24T06:07:56;18.50;71.10
78779;DHT22;68121;52.404;5.318;2023-07-24T06:10:23;18.50;71.10
78779;DHT22;68121;52.404;5.318;2023-07-24T06:12:49;18.50;71.10
78779;DHT22;68121;52.404;5.318;2023-07-24T06:15:16;18.50;71.10
78779;DHT22;68121;52.404;5.318;2023-07-24T06:17:42;18.50;71.10
78779;DHT22;68121;52.404;5.318;2023-07-24T06:20:08;18.50;71.10
78779;DHT22;68121;52.404;5.318;2023-07-24T06:22:34;18.60;71.10
78779;DHT22;68121;52.404;5.318;2023-07-24T06:25:00;18.50;71.00
78779;DHT22;68121;52.404;5.318;2023-07-24T06:27:26;18.60;71.10
78779;DHT22;68121;52.404;5.318;2023-07-24T06:29:52;18.60;71.00
78779;DHT22;68121;52.404;5.318;2023-07-24T06:32:18;18.60;71.10
78779;DHT22;68121;52.404;5.318;2023-07-24T06:34:45;18.60;71.00
78779;DHT22;68121;52.404;5.318;2023-07-24T06:37:13;18.70;71.00
78779;DHT22;68121;52.404;5.318;2023-07-24T06:39:39;18.70;70.90
78779;DHT22;68121;52.404;5.318;2023-07-24T06:42:05;18.80;70.90
78779;DHT22;68121;52.404;5.318;2023-07-24T06:44:31;18.90;70.80
78779;DHT22;68121;52.404;5.318;2023-07-24T06:46:57;19.00;70.70
78779;DHT22;68121;52.404;5.318;2023-07-24T06:49:24;19.10;70.50
78779;DHT22;68121;52.404;5.318;2023-07-24T06:51:51;19.20;70.40
78779;DHT22;68121;52.404;5.318;2023-07-24T06:54:17;19.30;70.30
78779;DHT22;68121;52.404;5.318;2023-07-24T06:56:43;19.30;70.20
78779;DHT22;68121;52.404;5.318;2023-07-24T06:59:10;19.30;70.10
78779;DHT22;68121;52.404;5.318;2023-07-24T07:01:36;19.30;70.10
78779;DHT22;68121;52.404;5.318;2023-07-24T07:04:02;19.40;70.00
78779;DHT22;68121;52.404;5.318;2023-07-24T07:06:29;19.50;69.90
78779;DHT22;68121;52.404;5.318;2023-07-24T07:08:55;19.70;69.70
78779;DHT22;68121;52.404;5.318;2023-07-24T07:11:21;19.70;69.50
78779;DHT22;68121;52.404;5.318;2023-07-24T07:13:47;19.70;69.50
78779;DHT22;68121;52.404;5.318;2023-07-24T07:16:13;19.60;69.40
78779;DHT22;68121;52.404;5.318;2023-07-24T07:18:39;19.50;69.50
78779;DHT22;68121;52.404;5.318;2023-07-24T07:21:05;19.50;69.50
78779;DHT22;68121;52.404;5.318;2023-07-24T07:23:31;19.50;69.50
78779;DHT22;68121;52.404;5.318;2023-07-24T07:25:57;19.50;69.40
78779;DHT22;68121;52.404;5.318;2023-07-24T07:28:23;19.50;69.40
78779;DHT22;68121;52.404;5.318;2023-07-24T07:30:49;19.50;69.40
78779;DHT22;68121;52.404;5.318;2023-07-24T07:33:15;19.50;69.40
78779;DHT22;68121;52.404;5.318;2023-07-24T07:35:41;19.50;69.50
78779;DHT22;68121;52.404;5.318;2023-07-24T07:38:07;19.50;69.50
78779;DHT22;68121;52.404;5.318;2023-07-24T07:40:33;19.70;69.40
78779;DHT22;68121;52.404;5.318;2023-07-24T07:42:59;19.80;69.20
78779;DHT22;68121;52.404;5.318;2023-07-24T07:45:25;19.90;69.10
78779;DHT22;68121;52.404;5.318;2023-07-24T07:47:51;20.00;68.90
78779;DHT22;68121;52.404;5.318;2023-07-24T07:50:19;20.10;68.70
78779;DHT22;68121;52.404;5.318;2023-07-24T07:52:45;20.30;68.40
78779;DHT22;68121;52.404;5.318;2023-07-24T07:55:12;20.50;68.20
78779;DHT22;68121;52.404;5.318;2023-07-24T07:57:39;20.50;68.00
78779;DHT22;68121;52.404;5.318;2023-07-24T08:00:06;20.60;67.90
78779;DHT22;68121;52.404;5.318;2023-07-24T08:02:32;20.60;67.70
78779;DHT22;68121;52.404;5.318;2023-07-24T08:05:00;20.60;67.60
78779;DHT22;68121;52.404;5.318;2023-07-24T08:07:26;20.60;67.50
78779;DHT22;68121;52.404;5.318;2023-07-24T08:09:52;20.50;67.50
78779;DHT22;68121;52.404;5.318;2023-07-24T08:12:18;20.70;67.40
78779;DHT22;68121;52.404;5.318;2023-07-24T08:14:44;20.80;67.20
78779;DHT22;68121;52.404;5.318;2023-07-24T08:17:10;20.90;66.90
78779;DHT22;68121;52.404;5.318;2023-07-24T08:19:36;21.00;66.80
78779;DHT22;68121;52.404;5.318;2023-07-24T08:22:02;21.20;66.50
78779;DHT22;68121;52.404;5.318;2023-07-24T08:24:34;21.40;66.20
78779;DHT22;68121;52.404;5.318;2023-07-24T08:27:01;21.50;65.80
78779;DHT22;68121;52.404;5.318;2023-07-24T08:29:27;21.70;65.60
78779;DHT22;68121;52.404;5.318;2023-07-24T08:31:53;21.80;65.40
78779;DHT22;68121;52.404;5.318;2023-07-24T08:34:20;21.90;65.00
78779;DHT22;68121;52.404;5.318;2023-07-24T08:36:46;22.00;64.70
78779;DHT22;68121;52.404;5.318;2023-07-24T08:39:12;21.90;64.70
78779;DHT22;68121;52.404;5.318;2023-07-24T08:41:38;21.90;64.50
78779;DHT22;68121;52.404;5.318;2023-07-24T08:44:07;21.90;64.40
78779;DHT22;68121;52.404;5.318;2023-07-24T08:46:37;21.90;64.20
78779;DHT22;68121;52.404;5.318;2023-07-24T08:49:04;21.90;64.20
78779;DHT22;68121;52.404;5.318;2023-07-24T08:51:31;22.10;64.00
78779;DHT22;68121;52.404;5.318;2023-07-24T08:53:59;22.20;63.60
78779;DHT22;68121;52.404;5.318;2023-07-24T08:56:25;22.30;63.40
78779;DHT22;68121;52.404;5.318;2023-07-24T08:58:51;22.50;63.30
78779;DHT22;68121;52.404;5.318;2023-07-24T09:01:17;22.50;63.00
78779;DHT22;68121;52.404;5.318;2023-07-24T09:03:43;22.50;63.00
78779;DHT22;68121;52.404;5.318;2023-07-24T09:06:09;22.40;62.90
78779;DHT22;68121;52.404;5.318;2023-07-24T09:08:37;22.50;62.90
78779;DHT22;68121;52.404;5.318;2023-07-24T09:11:05;22.50;62.60
78779;DHT22;68121;52.404;5.318;2023-07-24T09:13:32;22.60;62.50
78779;DHT22;68121;52.404;5.318;2023-07-24T09:15:59;22.70;62.40
78779;DHT22;68121;52.404;5.318;2023-07-24T09:18:25;22.90;62.20
78779;DHT22;68121;52.404;5.318;2023-07-24T09:20:51;22.90;62.10
78779;DHT22;68121;52.404;5.318;2023-07-24T09:23:26;23.00;61.80
78779;DHT22;68121;52.404;5.318;2023-07-24T09:25:53;23.10;61.30
78779;DHT22;68121;52.404;5.318;2023-07-24T09:28:19;23.00;61.50
78779;DHT22;68121;52.404;5.318;2023-07-24T09:30:54;22.80;61.40
78779;DHT22;68121;52.404;5.318;2023-07-24T09:33:34;22.60;61.40
78779;DHT22;68121;52.404;5.318;2023-07-24T09:36:01;22.50;61.60
78779;DHT22;68121;52.404;5.318;2023-07-24T09:38:28;22.50;61.80
78779;DHT22;68121;52.404;5.318;2023-07-24T09:40:55;22.60;61.70
78779;DHT22;68121;52.404;5.318;2023-07-24T09:43:23;22.60;61.50
78779;DHT22;68121;52.404;5.318;2023-07-24T09:45:51;22.60;61.50
78779;DHT22;68121;52.404;5.318;2023-07-24T09:48:19;22.50;61.60
78779;DHT22;68121;52.404;5.318;2023-07-24T09:50:47;22.30;61.60
78779;DHT22;68121;52.404;5.318;2023-07-24T09:56:05;22.10;61.80
78779;DHT22;68121;52.404;5.318;2023-07-24T09:58:37;22.00;61.90
78779;DHT22;68121;52.404;5.318;2023-07-24T10:01:05;21.90;62.10
78779;DHT22;68121;52.404;5.318;2023-07-24T10:03:39;21.90;62.10
78779;DHT22;68121;52.404;5.318;2023-07-24T10:06:08;21.90;62.20
78779;DHT22;68121;52.404;5.318;2023-07-24T10:08:36;22.00;62.10
78779;DHT22;68121;52.404;5.318;2023-07-24T10:11:04;22.20;62.00
78779;DHT22;68121;52.404;5.318;2023-07-24T10:13:31;22.30;61.90
78779;DHT22;68121;52.404;5.318;2023-07-24T10:15:57;22.30;61.90
78779;DHT22;68121;52.404;5.318;2023-07-24T10:18:27;22.30;61.90
78779;DHT22;68121;52.404;5.318;2023-07-24T10:21:07;22.20;62.00
78779;DHT22;68121;52.404;5.318;2023-07-24T10:23:35;22.20;62.10
78779;DHT22;68121;52.404;5.318;2023-07-24T10:26:05;22.30;62.00
78779;DHT22;68121;52.404;5.318;2023-07-24T10:28:33;22.30;61.90
78779;DHT22;68121;52.404;5.318;2023-07-24T10:31:01;22.50;61.80
78779;DHT22;68121;52.404;5.318;2023-07-24T10:33:31;22.50;61.70
78779;DHT22;68121;52.404;5.318;2023-07-24T10:36:05;22.60;61.60
78779;DHT22;68121;52.404;5.318;2023-07-24T10:38:35;22.60;61.50
78779;DHT22;68121;52.404;5.318;2023-07-24T10:41:03;22.60;61.60
78779;DHT22;68121;52.404;5.318;2023-07-24T10:43:39;22.60;61.60
78779;DHT22;68121;52.404;5.318;2023-07-24T10:46:05;22.70;61.50
78779;DHT22;68121;52.404;5.318;2023-07-24T10:48:32;22.70;61.50
78779;DHT22;68121;52.404;5.318;2023-07-24T10:51:06;22.70;61.40
78779;DHT22;68121;52.404;5.318;2023-07-24T10:53:35;22.80;61.20
78779;DHT22;68121;52.404;5.318;2023-07-24T10:56:01;22.90;61.10
78779;DHT22;68121;52.404;5.318;2023-07-24T10:58:29;22.90;60.90
78779;DHT22;68121;52.404;5.318;2023-07-24T11:00:55;22.80;61.00
78779;DHT22;68121;52.404;5.318;2023-07-24T11:03:22;22.70;61.20
78779;DHT22;68121;52.404;5.318;2023-07-24T11:05:49;22.90;61.10
78779;DHT22;68121;52.404;5.318;2023-07-24T11:08:17;23.10;61.00
78779;DHT22;68121;52.404;5.318;2023-07-24T11:10:57;23.30;60.60
78779;DHT22;68121;52.404;5.318;2023-07-24T11:13:25;23.40;60.30
78779;DHT22;68121;52.404;5.318;2023-07-24T11:15:53;23.40;60.30
78779;DHT22;68121;52.404;5.318;2023-07-24T11:18:20;23.40;60.10
78779;DHT22;68121;52.404;5.318;2023-07-24T11:20:50;23.40;60.20
78779;DHT22;68121;52.404;5.318;2023-07-24T11:23:17;23.50;60.30
78779;DHT22;68121;52.404;5.318;2023-07-24T11:25:43;23.50;60.30
78779;DHT22;68121;52.404;5.318;2023-07-24T11:28:11;23.60;60.20
78779;DHT22;68121;52.404;5.318;2023-07-24T11:30:38;23.80;60.10
78779;DHT22;68121;52.404;5.318;2023-07-24T11:33:11;24.00;59.70
78779;DHT22;68121;52.404;5.318;2023-07-24T11:35:37;24.20;59.20
78779;DHT22;68121;52.404;5.318;2023-07-24T11:38:06;24.20;59.00
78779;DHT22;68121;52.404;5.318;2023-07-24T11:40:43;24.00;58.90
78779;DHT22;68121;52.404;5.318;2023-07-24T11:43:21;23.80;58.80
78779;DHT22;68121;52.404;5.318;2023-07-24T11:45:48;23.70;59.00
78779;DHT22;68121;52.404;5.318;2023-07-24T11:48:18;23.80;58.90
78779;DHT22;68121;52.404;5.318;2023-07-24T11:50:52;24.00;58.70
78779;DHT22;68121;52.404;5.318;2023-07-24T11:53:30;24.00;58.50
78779;DHT22;68121;52.404;5.318;2023-07-24T11:55:58;24.00;58.50
78779;DHT22;68121;52.404;5.318;2023-07-24T11:58:29;23.90;58.60
78779;DHT22;68121;52.404;5.318;2023-07-24T12:00:56;23.80;58.70
78779;DHT22;68121;52.404;5.318;2023-07-24T12:03:24;23.80;58.80
78779;DHT22;68121;52.404;5.318;2023-07-24T12:05:51;23.80;58.90
78779;DHT22;68121;52.404;5.318;2023-07-24T12:08:29;23.80;58.90
78779;DHT22;68121;52.404;5.318;2023-07-24T12:10:55;23.70;58.90
78779;DHT22;68121;52.404;5.318;2023-07-24T12:13:21;23.70;59.20
78779;DHT22;68121;52.404;5.318;2023-07-24T12:15:48;23.80;59.10
78779;DHT22;68121;52.404;5.318;2023-07-24T12:18:15;23.90;59.00
78779;DHT22;68121;52.404;5.318;2023-07-24T12:20:41;23.90;59.10
78779;DHT22;68121;52.404;5.318;2023-07-24T12:23:07;24.10;59.00
78779;DHT22;68121;52.404;5.318;2023-07-24T12:25:33;24.20;58.80
78779;DHT22;68121;52.404;5.318;2023-07-24T12:27:59;24.40;58.60
78779;DHT22;68121;52.404;5.318;2023-07-24T12:30:25;24.60;58.40
78779;DHT22;68121;52.404;5.318;2023-07-24T12:32:52;24.80;58.20
78779;DHT22;68121;52.404;5.318;2023-07-24T12:35:18;25.00;57.90
78779;DHT22;68121;52.404;5.318;2023-07-24T12:37:44;25.00;57.90
78779;DHT22;68121;52.404;5.318;2023-07-24T12:40:11;25.00;57.80
78779;DHT22;68121;52.404;5.318;2023-07-24T12:42:38;25.20;57.90
78779;DHT22;68121;52.404;5.318;2023-07-24T12:45:04;25.20;57.90
78779;DHT22;68121;52.404;5.318;2023-07-24T12:47:32;25.00;58.00
78779;DHT22;68121;52.404;5.318;2023-07-24T12:49:58;24.60;58.20
78779;DHT22;68121;52.404;5.318;2023-07-24T12:52:25;24.20;58.60
78779;DHT22;68121;52.404;5.318;2023-07-24T12:54:52;24.00;59.00
78779;DHT22;68121;52.404;5.318;2023-07-24T12:57:18;23.80;59.30
78779;DHT22;68121;52.404;5.318;2023-07-24T12:59:44;23.60;59.60
78779;DHT22;68121;52.404;5.318;2023-07-24T13:02:10;23.40;59.70
78779;DHT22;68121;52.404;5.318;2023-07-24T13:04:36;23.30;59.90
78779;DHT22;68121;52.404;5.318;2023-07-24T13:07:02;23.40;59.90
78779;DHT22;68121;52.404;5.318;2023-07-24T13:09:30;23.60;59.70
78779;DHT22;68121;52.404;5.318;2023-07-24T13:11:56;23.80;59.40
78779;DHT22;68121;52.404;5.318;2023-07-24T13:14:22;24.00;59.10
78779;DHT22;68121;52.404;5.318;2023-07-24T13:16:50;24.30;58.70
78779;DHT22;68121;52.404;5.318;2023-07-24T13:19:16;24.40;58.40
78779;DHT22;68121;52.404;5.318;2023-07-24T13:21:42;24.50;58.30
78779;DHT22;68121;52.404;5.318;2023-07-24T13:24:09;24.70;58.10
78779;DHT22;68121;52.404;5.318;2023-07-24T13:26:36;24.80;58.00
78779;DHT22;68121;52.404;5.318;2023-07-24T13:29:03;25.00;57.70
78779;DHT22;68121;52.404;5.318;2023-07-24T13:31:31;25.00;57.60
78779;DHT22;68121;52.404;5.318;2023-07-24T13:33:57;25.00;57.40
78779;DHT22;68121;52.404;5.318;2023-07-24T13:36:23;25.00;57.40
78779;DHT22;68121;52.404;5.318;2023-07-24T13:38:49;25.00;57.50
78779;DHT22;68121;52.404;5.318;2023-07-24T13:41:16;24.80;57.60
78779;DHT22;68121;52.404;5.318;2023-07-24T13:43:42;24.80;57.70
78779;DHT22;68121;52.404;5.318;2023-07-24T13:46:08;24.70;57.60
78779;DHT22;68121;52.404;5.318;2023-07-24T13:48:34;24.70;57.60
78779;DHT22;68121;52.404;5.318;2023-07-24T13:51:00;24.60;57.80
78779;DHT22;68121;52.404;5.318;2023-07-24T13:53:27;24.40;58.10
78779;DHT22;68121;52.404;5.318;2023-07-24T13:55:53;24.20;58.40
78779;DHT22;68121;52.404;5.318;2023-07-24T13:58:19;24.00;58.70
78779;DHT22;68121;52.404;5.318;2023-07-24T14:00:45;23.90;58.70
78779;DHT22;68121;52.404;5.318;2023-07-24T14:03:11;23.80;58.90
78779;DHT22;68121;52.404;5.318;2023-07-24T14:05:37;23.80;58.80
78779;DHT22;68121;52.404;5.318;2023-07-24T14:08:04;23.70;58.80
78779;DHT22;68121;52.404;5.318;2023-07-24T14:10:30;23.50;59.00
78779;DHT22;68121;52.404;5.318;2023-07-24T14:12:57;23.30;59.30
78779;DHT22;68121;52.404;5.318;2023-07-24T14:15:23;23.10;59.70
78779;DHT22;68121;52.404;5.318;2023-07-24T14:17:49;22.90;59.90
78779;DHT22;68121;52.404;5.318;2023-07-24T14:20:15;22.80;60.00
78779;DHT22;68121;52.404;5.318;2023-07-24T14:22:42;22.70;60.20
78779;DHT22;68121;52.404;5.318;2023-07-24T14:25:08;22.70;60.30
78779;DHT22;68121;52.404;5.318;2023-07-24T14:27:34;22.60;60.30
78779;DHT22;68121;52.404;5.318;2023-07-24T14:30:00;22.60;60.40
78779;DHT22;68121;52.404;5.318;2023-07-24T14:32:26;22.50;60.40
78779;DHT22;68121;52.404;5.318;2023-07-24T14:34:53;22.30;60.30
78779;DHT22;68121;52.404;5.318;2023-07-24T14:37:19;22.20;60.40
78779;DHT22;68121;52.404;5.318;2023-07-24T14:39:45;22.10;60.50
78779;DHT22;68121;52.404;5.318;2023-07-24T14:42:11;22.10;60.60
78779;DHT22;68121;52.404;5.318;2023-07-24T14:44:38;22.10;60.60
78779;DHT22;68121;52.404;5.318;2023-07-24T14:47:04;22.00;60.50
78779;DHT22;68121;52.404;5.318;2023-07-24T14:49:30;21.90;60.30
78779;DHT22;68121;52.404;5.318;2023-07-24T14:51:56;21.70;60.40
78779;DHT22;68121;52.404;5.318;2023-07-24T14:54:22;21.50;60.70
78779;DHT22;68121;52.404;5.318;2023-07-24T14:56:49;21.50;60.70
78779;DHT22;68121;52.404;5.318;2023-07-24T14:59:15;21.40;60.80
78779;DHT22;68121;52.404;5.318;2023-07-24T15:01:42;21.30;60.80
78779;DHT22;68121;52.404;5.318;2023-07-24T15:04:08;21.20;61.10
78779;DHT22;68121;52.404;5.318;2023-07-24T15:06:34;21.00;61.20
78779;DHT22;68121;52.404;5.318;2023-07-24T15:09:00;20.80;61.60
78779;DHT22;68121;52.404;5.318;2023-07-24T15:11:26;20.60;61.80
78779;DHT22;68121;52.404;5.318;2023-07-24T15:13:52;20.50;61.90
78779;DHT22;68121;52.404;5.318;2023-07-24T15:16:19;20.20;62.20
78779;DHT22;68121;52.404;5.318;2023-07-24T15:18:45;20.00;62.50
78779;DHT22;68121;52.404;5.318;2023-07-24T15:21:11;19.90;62.60
78779;DHT22;68121;52.404;5.318;2023-07-24T15:23:37;19.80;62.60
78779;DHT22;68121;52.404;5.318;2023-07-24T15:26:04;19.70;62.70
78779;DHT22;68121;52.404;5.318;2023-07-24T15:28:30;19.50;62.90
78779;DHT22;68121;52.404;5.318;2023-07-24T15:30:56;19.40;63.00
78779;DHT22;68121;52.404;5.318;2023-07-24T15:33:22;19.30;63.00